sensor_id;sensor_type;location;lat;lon;timestamp;temperature;humidity
33699;DHT22;20032;52.436;13.312;2024-02-28T00:02:07;5.50;99.90
33699;DHT22;20032;52.436;13.312;2024-02-28T00:04:33;5.50;99.90
33699;DHT22;20032;52.436;13.312;2024-02-28T00:06:58;5.50;99.90
33699;DHT22;20032;52.436;13.312;2024-02-28T00:09:24;5.40;99.90
33699;DHT22;20032;52.436;13.312;2024-02-28T00:11:49;5.50;99.90
33699;DHT22;20032;52.436;13.312;2024-02-28T00:14:15;5.50;99.90
33699;DHT22;20032;52.436;13.312;2024-02-28T00:16:41;5.60;99.90
33699;DHT22;20032;52.436;13.312;2024-02-28T00:19:07;5.60;99.90
33699;DHT22;20032;52.436;13.312;2024-02-28T00:21:33;5.50;99.90
33699;DHT22;20032;52.436;13.312;2024-02-28T00:23:58;5.60;99.90
33699;DHT22;20032;52.436;13.312;2024-02-28T00:26:24;5.60;99.90
33699;DHT22;20032;52.436;13.312;2024-02-28T00:28:49;5.60;99.90
33699;DHT22;20032;52.436;13.312;2024-02-28T00:31:15;5.50;99.90
33699;DHT22;20032;52.436;13.312;2024-02-28T00:33:40;5.50;99.90
33699;DHT22;20032;52.436;13.312;2024-02-28T00:36:06;5.60;99.90
33699;DHT22;20032;52.436;13.312;2024-02-28T00:38:31;5.60;99.90
33699;DHT22;20032;52.436;13.312;2024-02-28T00:40:57;5.60;99.90
33699;DHT22;20032;52.436;13.312;2024-02-28T00:43:22;5.50;99.90
33699;DHT22;20032;52.436;13.312;2024-02-28T00:45:48;5.40;99.90
33699;DHT22;20032;52.436;13.312;2024-02-28T00:48:14;5.30;99.90
33699;DHT22;20032;52.436;13.312;2024-02-28T00:50:39;5.40;99.90
33699;DHT22;20032;52.436;13.312;2024-02-28T00:53:05;5.40;99.90
33699;DHT22;20032;52.436;13.312;2024-02-28T00:55:30;5.50;99.90
33699;DHT22;20032;52.436;13.312;2024-02-28T00:57:56;5.50;99.90
33699;DHT22;20032;52.436;13.312;2024-02-28T01:00:21;5.50;99.90
33699;DHT22;20032;52.436;13.312;2024-02-28T01:02:47;5.50;99.90
33699;DHT22;20032;52.436;13.312;2024-02-28T01:05:12;5.50;99.90
33699;DHT22;20032;52.436;13.312;2024-02-28T01:07:38;5.50;99.90
33699;DHT22;20032;52.436;13.312;2024-02-28T01:10:03;5.50;99.90
33699;DHT22;20032;52.436;13.312;2024-02-28T01:12:29;5.50;99.90
33699;DHT22;20032;52.436;13.312;2024-02-28T01:14:55;5.50;99.90
33699;DHT22;20032;52.436;13.312;2024-02-28T01:17:20;5.40;99.90
33699;DHT22;20032;52.436;13.312;2024-02-28T01:19:47;5.40;99.90
33699;DHT22;20032;52.436;13.312;2024-02-28T01:22:12;5.30;99.90
33699;DHT22;20032;52.436;13.312;2024-02-28T01:24:38;5.30;99.90
33699;DHT22;20032;52.436;13.312;2024-02-28T01:27:03;5.40;99.90
33699;DHT22;20032;52.436;13.312;2024-02-28T01:29:29;5.40;99.90
33699;DHT22;20032;52.436;13.312;2024-02-28T01:31:55;5.50;99.90
33699;DHT22;20032;52.436;13.312;2024-02-28T01:34:21;5.40;99.90
33699;DHT22;20032;52.436;13.312;2024-02-28T01:36:46;5.30;99.90
33699;DHT22;20032;52.436;13.312;2024-02-28T01:39:12;5.40;99.90
33699;DHT22;20032;52.436;13.312;2024-02-28T01:41:37;5.40;99.90
33699;DHT22;20032;52.436;13.312;2024-02-28T01:44:03;5.50;99.90
33699;DHT22;20032;52.436;13.312;2024-02-28T01:46:29;5.50;99.90
33699;DHT22;20032;52.436;13.312;2024-02-28T01:48:55;5.50;99.90
33699;DHT22;20032;52.436;13.312;2024-02-28T01:51:23;5.40;99.90
33699;DHT22;20032;52.436;13.312;2024-02-28T01:53:50;5.40;99.90
33699;DHT22;20032;52.436;13.312;2024-02-28T01:56:16;5.50;99.90
33699;DHT22;20032;52.436;13.312;2024-02-28T01:58:44;5.40;99.90
33699;DHT22;20032;52.436;13.312;2024-02-28T02:01:11;5.40;99.90
33699;DHT22;20032;52.436;13.312;2024-02-28T02:03:36;5.50;99.90
33699;DHT22;20032;52.436;13.312;2024-02-28T02:06:03;5.30;99.90
33699;DHT22;20032;52.436;13.312;2024-02-28T02:08:28;5.40;99.90
33699;DHT22;20032;52.436;13.312;2024-02-28T02:10:54;5.40;99.90
33699;DHT22;20032;52.436;13.312;2024-02-28T02:13:20;5.40;99.90
33699;DHT22;20032;52.436;13.312;2024-02-28T02:15:45;5.20;99.90
33699;DHT22;20032;52.436;13.312;2024-02-28T02:18:11;5.10;99.90
33699;DHT22;20032;52.436;13.312;2024-02-28T02:20:38;5.10;99.90
33699;DHT22;20032;52.436;13.312;2024-02-28T02:23:06;5.10;99.90
33699;DHT22;20032;52.436;13.312;2024-02-28T02:25:32;5.10;99.90
33699;DHT22;20032;52.436;13.312;2024-02-28T02:27:57;5.20;99.90
33699;DHT22;20032;52.436;13.312;2024-02-28T02:30:23;5.30;99.90
33699;DHT22;20032;52.436;13.312;2024-02-28T02:32:49;5.30;99.90
33699;DHT22;20032;52.436;13.312;2024-02-28T02:35:14;5.40;99.90
33699;DHT22;20032;52.436;13.312;2024-02-28T02:37:43;5.30;99.90
33699;DHT22;20032;52.436;13.312;2024-02-28T02:40:11;5.30;99.90
33699;DHT22;20032;52.436;13.312;2024-02-28T02:42:37;5.20;99.90
33699;DHT22;20032;52.436;13.312;2024-02-28T02:45:03;5.30;99.90
33699;DHT22;20032;52.436;13.312;2024-02-28T02:47:28;5.20;99.90
33699;DHT22;20032;52.436;13.312;2024-02-28T02:49:56;5.20;99.90
33699;DHT22;20032;52.436;13.312;2024-02-28T02:52:21;5.20;99.90
33699;DHT22;20032;52.436;13.312;2024-02-28T02:54:47;5.30;99.90
33699;DHT22;20032;52.436;13.312;2024-02-28T02:57:12;5.40;99.90
33699;DHT22;20032;52.436;13.312;2024-02-28T02:59:38;5.30;99.90
33699;DHT22;20032;52.436;13.312;2024-02-28T03:04:29;5.20;99.90
33699;DHT22;20032;52.436;13.312;2024-02-28T03:06:54;5.20;99.90
33699;DHT22;20032;52.436;13.312;2024-02-28T03:09:20;5.20;99.90
33699;DHT22;20032;52.436;13.312;2024-02-28T03:11:45;5.20;99.90
33699;DHT22;20032;52.436;13.312;2024-02-28T03:14:11;5.20;99.90
33699;DHT22;20032;52.436;13.312;2024-02-28T03:16:41;5.20;99.90
33699;DHT22;20032;52.436;13.312;2024-02-28T03:19:07;5.20;99.90
33699;DHT22;20032;52.436;13.312;2024-02-28T03:21:32;5.20;99.90
33699;DHT22;20032;52.436;13.312;2024-02-28T03:23:58;5.20;99.90
33699;DHT22;20032;52.436;13.312;2024-02-28T03:26:23;5.20;99.90
33699;DHT22;20032;52.436;13.312;2024-02-28T03:28:48;5.20;99.90
33699;DHT22;20032;52.436;13.312;2024-02-28T03:31:14;5.10;99.90
33699;DHT22;20032;52.436;13.312;2024-02-28T03:33:39;5.00;99.90
33699;DHT22;20032;52.436;13.312;2024-02-28T03:36:05;5.10;99.90
33699;DHT22;20032;52.436;13.312;2024-02-28T03:38:31;5.00;99.90
33699;DHT22;20032;52.436;13.312;2024-02-28T03:40:56;5.00;99.90
33699;DHT22;20032;52.436;13.312;2024-02-28T03:43:22;5.10;99.90
33699;DHT22;20032;52.436;13.312;2024-02-28T03:45:48;5.10;99.90
33699;DHT22;20032;52.436;13.312;2024-02-28T03:48:14;5.00;99.90
33699;DHT22;20032;52.436;13.312;2024-02-28T03:50:39;5.00;99.90
33699;DHT22;20032;52.436;13.312;2024-02-28T03:53:05;5.00;99.90
33699;DHT22;20032;52.436;13.312;2024-02-28T03:55:30;5.10;99.90
33699;DHT22;20032;52.436;13.312;2024-02-28T03:57:56;5.10;99.90
33699;DHT22;20032;52.436;13.312;2024-02-28T04:00:21;5.00;99.90
33699;DHT22;20032;52.436;13.312;2024-02-28T04:02:47;5.00;99.90
33699;DHT22;20032;52.436;13.312;2024-02-28T04:05:13;5.00;99.90
33699;DHT22;20032;52.436;13.312;2024-02-28T04:07:38;5.10;99.90
33699;DHT22;20032;52.436;13.312;2024-02-28T04:10:04;5.10;99.90
33699;DHT22;20032;52.436;13.312;2024-02-28T04:12:30;5.10;99.90
33699;DHT22;20032;52.436;13.312;2024-02-28T04:14:56;5.10;99.90
33699;DHT22;20032;52.436;13.312;2024-02-28T04:17:22;5.00;99.90
33699;DHT22;20032;52.436;13.312;2024-02-28T04:19:47;5.00;99.90
33699;DHT22;20032;52.436;13.312;2024-02-28T04:22:13;5.10;99.90
33699;DHT22;20032;52.436;13.312;2024-02-28T04:24:38;5.10;99.90
33699;DHT22;20032;52.436;13.312;2024-02-28T04:27:04;5.10;99.90
33699;DHT22;20032;52.436;13.312;2024-02-28T04:29:31;5.10;99.90
33699;DHT22;20032;52.436;13.312;2024-02-28T04:31:56;5.10;99.90
33699;DHT22;20032;52.436;13.312;2024-02-28T04:34:21;5.10;99.90
33699;DHT22;20032;52.436;13.312;2024-02-28T04:36:47;5.00;99.90
33699;DHT22;20032;52.436;13.312;2024-02-28T04:39:12;5.10;99.90
33699;DHT22;20032;52.436;13.312;2024-02-28T04:41:38;5.10;99.90
33699;DHT22;20032;52.436;13.312;2024-02-28T04:44:03;5.10;99.90
33699;DHT22;20032;52.436;13.312;2024-02-28T04:46:29;5.10;99.90
33699;DHT22;20032;52.436;13.312;2024-02-28T04:48:54;5.00;99.90
33699;DHT22;20032;52.436;13.312;2024-02-28T04:51:20;5.10;99.90
33699;DHT22;20032;52.436;13.312;2024-02-28T04:53:45;5.10;99.90
33699;DHT22;20032;52.436;13.312;2024-02-28T04:56:11;5.00;99.90
33699;DHT22;20032;52.436;13.312;2024-02-28T04:58:37;5.00;99.90
33699;DHT22;20032;52.436;13.312;2024-02-28T05:01:02;4.90;99.90
33699;DHT22;20032;52.436;13.312;2024-02-28T05:03:28;4.90;99.90
33699;DHT22;20032;52.436;13.312;2024-02-28T05:05:54;4.90;99.90
33699;DHT22;20032;52.436;13.312;2024-02-28T05:08:20;5.00;99.90
33699;DHT22;20032;52.436;13.312;2024-02-28T05:10:45;5.10;99.90
33699;DHT22;20032;52.436;13.312;2024-02-28T05:13:11;5.10;99.90
33699;DHT22;20032;52.436;13.312;2024-02-28T05:15:36;5.00;99.90
33699;DHT22;20032;52.436;13.312;2024-02-28T05:18:02;5.00;99.90
33699;DHT22;20032;52.436;13.312;2024-02-28T05:20:27;5.00;99.90
33699;DHT22;20032;52.436;13.312;2024-02-28T05:22:53;5.10;99.90
33699;DHT22;20032;52.436;13.312;2024-02-28T05:25:19;5.10;99.90
33699;DHT22;20032;52.436;13.312;2024-02-28T05:27:44;5.00;99.90
33699;DHT22;20032;52.436;13.312;2024-02-28T05:30:10;5.10;99.90
33699;DHT22;20032;52.436;13.312;2024-02-28T05:32:36;5.10;99.90
33699;DHT22;20032;52.436;13.312;2024-02-28T05:35:01;5.00;99.90
33699;DHT22;20032;52.436;13.312;2024-02-28T05:37:27;5.10;99.90
33699;DHT22;20032;52.436;13.312;2024-02-28T05:39:53;5.00;99.90
33699;DHT22;20032;52.436;13.312;2024-02-28T05:42:18;5.00;99.90
33699;DHT22;20032;52.436;13.312;2024-02-28T05:44:48;5.00;99.90
33699;DHT22;20032;52.436;13.312;2024-02-28T05:47:14;5.00;99.90
33699;DHT22;20032;52.436;13.312;2024-02-28T05:49:39;5.00;99.90
33699;DHT22;20032;52.436;13.312;2024-02-28T05:52:05;4.90;99.90
33699;DHT22;20032;52.436;13.312;2024-02-28T05:54:31;4.90;99.90
33699;DHT22;20032;52.436;13.312;2024-02-28T05:56:56;4.90;99.90
33699;DHT22;20032;52.436;13.312;2024-02-28T05:59:22;4.80;99.90
33699;DHT22;20032;52.436;13.312;2024-02-28T06:01:47;4.80;99.90
33699;DHT22;20032;52.436;13.312;2024-02-28T06:04:13;4.80;99.90
33699;DHT22;20032;52.436;13.312;2024-02-28T06:06:38;4.80;99.90
33699;DHT22;20032;52.436;13.312;2024-02-28T06:09:04;4.80;99.90
33699;DHT22;20032;52.436;13.312;2024-02-28T06:11:29;4.80;99.90
33699;DHT22;20032;52.436;13.312;2024-02-28T06:13:55;4.70;99.90
33699;DHT22;20032;52.436;13.312;2024-02-28T06:16:20;4.80;99.90
33699;DHT22;20032;52.436;13.312;2024-02-28T06:18:46;4.70;99.90
33699;DHT22;20032;52.436;13.312;2024-02-28T06:21:13;4.60;99.90
33699;DHT22;20032;52.436;13.312;2024-02-28T06:23:39;4.60;99.90
33699;DHT22;20032;52.436;13.312;2024-02-28T06:26:05;4.70;99.90
33699;DHT22;20032;52.436;13.312;2024-02-28T06:28:30;4.70;99.90
33699;DHT22;20032;52.436;13.312;2024-02-28T06:30:57;4.70;99.90
33699;DHT22;20032;52.436;13.312;2024-02-28T06:33:23;4.70;99.90
33699;DHT22;20032;52.436;13.312;2024-02-28T06:35:48;4.70;99.90
33699;DHT22;20032;52.436;13.312;2024-02-28T06:38:14;4.70;99.90
33699;DHT22;20032;52.436;13.312;2024-02-28T06:40:40;4.70;99.90
33699;DHT22;20032;52.436;13.312;2024-02-28T06:43:06;4.60;99.90
33699;DHT22;20032;52.436;13.312;2024-02-28T06:45:32;4.60;99.90
33699;DHT22;20032;52.436;13.312;2024-02-28T06:47:58;4.70;99.90
33699;DHT22;20032;52.436;13.312;2024-02-28T06:50:23;4.70;99.90
33699;DHT22;20032;52.436;13.312;2024-02-28T06:52:49;4.80;99.90
33699;DHT22;20032;52.436;13.312;2024-02-28T06:55:14;4.80;99.90
33699;DHT22;20032;52.436;13.312;2024-02-28T06:57:41;4.90;99.90
33699;DHT22;20032;52.436;13.312;2024-02-28T07:02:36;4.90;99.90
33699;DHT22;20032;52.436;13.312;2024-02-28T07:05:02;4.90;99.90
33699;DHT22;20032;52.436;13.312;2024-02-28T07:07:30;4.90;99.90
33699;DHT22;20032;52.436;13.312;2024-02-28T07:09:56;4.80;99.90
33699;DHT22;20032;52.436;13.312;2024-02-28T07:12:21;4.70;99.90
33699;DHT22;20032;52.436;13.312;2024-02-28T07:14:47;4.60;99.90
33699;DHT22;20032;52.436;13.312;2024-02-28T07:17:12;4.70;99.90
33699;DHT22;20032;52.436;13.312;2024-02-28T07:19:38;4.70;99.90
33699;DHT22;20032;52.436;13.312;2024-02-28T07:22:04;4.70;99.90
33699;DHT22;20032;52.436;13.312;2024-02-28T07:24:31;4.80;99.90
33699;DHT22;20032;52.436;13.312;2024-02-28T07:26:56;4.80;99.90
33699;DHT22;20032;52.436;13.312;2024-02-28T07:29:23;4.80;99.90
33699;DHT22;20032;52.436;13.312;2024-02-28T07:31:49;4.80;99.90
33699;DHT22;20032;52.436;13.312;2024-02-28T07:34:15;4.80;99.90
33699;DHT22;20032;52.436;13.312;2024-02-28T07:36:41;4.80;99.90
33699;DHT22;20032;52.436;13.312;2024-02-28T07:39:06;4.80;99.90
33699;DHT22;20032;52.436;13.312;2024-02-28T07:41:32;4.70;99.90
33699;DHT22;20032;52.436;13.312;2024-02-28T07:43:57;4.70;99.90
33699;DHT22;20032;52.436;13.312;2024-02-28T07:46:24;4.60;99.90
33699;DHT22;20032;52.436;13.312;2024-02-28T07:48:49;4.60;99.90
33699;DHT22;20032;52.436;13.312;2024-02-28T07:51:15;4.60;99.90
33699;DHT22;20032;52.436;13.312;2024-02-28T07:53:41;4.60;99.90
33699;DHT22;20032;52.436;13.312;2024-02-28T07:56:06;4.70;99.90
33699;DHT22;20032;52.436;13.312;2024-02-28T07:58:32;4.60;99.90
33699;DHT22;20032;52.436;13.312;2024-02-28T08:00:57;4.70;99.90
33699;DHT22;20032;52.436;13.312;2024-02-28T08:03:23;4.70;99.90
33699;DHT22;20032;52.436;13.312;2024-02-28T08:05:49;4.70;99.90
33699;DHT22;20032;52.436;13.312;2024-02-28T08:08:14;4.60;99.90
33699;DHT22;20032;52.436;13.312;2024-02-28T08:10:40;4.60;99.90
33699;DHT22;20032;52.436;13.312;2024-02-28T08:13:06;4.60;99.90
33699;DHT22;20032;52.436;13.312;2024-02-28T08:15:32;4.50;99.90
33699;DHT22;20032;52.436;13.312;2024-02-28T08:17:58;4.60;99.90
33699;DHT22;20032;52.436;13.312;2024-02-28T08:20:24;4.60;99.90
33699;DHT22;20032;52.436;13.312;2024-02-28T08:22:49;4.60;99.90
33699;DHT22;20032;52.436;13.312;2024-02-28T08:25:18;4.60;99.90
33699;DHT22;20032;52.436;13.312;2024-02-28T08:27:43;4.50;99.90
33699;DHT22;20032;52.436;13.312;2024-02-28T08:30:09;4.40;99.90
33699;DHT22;20032;52.436;13.312;2024-02-28T08:32:34;4.40;99.90
33699;DHT22;20032;52.436;13.312;2024-02-28T08:38:25;4.50;99.90
33699;DHT22;20032;52.436;13.312;2024-02-28T08:40:51;4.50;99.90
33699;DHT22;20032;52.436;13.312;2024-02-28T08:43:27;4.50;99.90
33699;DHT22;20032;52.436;13.312;2024-02-28T08:45:53;4.30;99.90
33699;DHT22;20032;52.436;13.312;2024-02-28T08:48:20;4.30;99.90
33699;DHT22;20032;52.436;13.312;2024-02-28T08:50:46;4.30;99.90
33699;DHT22;20032;52.436;13.312;2024-02-28T08:53:14;4.40;99.90
33699;DHT22;20032;52.436;13.312;2024-02-28T08:55:44;4.40;99.90
33699;DHT22;20032;52.436;13.312;2024-02-28T08:58:10;4.30;99.90
33699;DHT22;20032;52.436;13.312;2024-02-28T09:00:36;4.40;99.90
33699;DHT22;20032;52.436;13.312;2024-02-28T09:03:03;4.30;99.90
33699;DHT22;20032;52.436;13.312;2024-02-28T09:05:29;4.30;99.90
33699;DHT22;20032;52.436;13.312;2024-02-28T09:07:55;4.30;99.90
33699;DHT22;20032;52.436;13.312;2024-02-28T09:10:23;4.30;99.90
33699;DHT22;20032;52.436;13.312;2024-02-28T09:12:50;4.40;99.90
33699;DHT22;20032;52.436;13.312;2024-02-28T09:15:15;4.40;99.90
33699;DHT22;20032;52.436;13.312;2024-02-28T09:17:45;4.30;99.90
33699;DHT22;20032;52.436;13.312;2024-02-28T09:20:11;4.30;99.90
33699;DHT22;20032;52.436;13.312;2024-02-28T09:22:37;4.30;99.90
33699;DHT22;20032;52.436;13.312;2024-02-28T09:25:03;4.40;99.90
33699;DHT22;20032;52.436;13.312;2024-02-28T09:27:30;4.40;99.90
33699;DHT22;20032;52.436;13.312;2024-02-28T09:29:55;4.50;99.90
33699;DHT22;20032;52.436;13.312;2024-02-28T09:32:21;4.60;99.90
33699;DHT22;20032;52.436;13.312;2024-02-28T09:34:47;4.60;99.90
33699;DHT22;20032;52.436;13.312;2024-02-28T09:37:13;4.60;99.90
33699;DHT22;20032;52.436;13.312;2024-02-28T09:39:39;4.60;99.90
33699;DHT22;20032;52.436;13.312;2024-02-28T09:42:07;4.70;99.90
33699;DHT22;20032;52.436;13.312;2024-02-28T09:44:34;4.70;99.90
33699;DHT22;20032;52.436;13.312;2024-02-28T09:46:59;4.70;99.90
33699;DHT22;20032;52.436;13.312;2024-02-28T09:49:26;4.70;99.90
33699;DHT22;20032;52.436;13.312;2024-02-28T09:51:52;4.70;99.90
33699;DHT22;20032;52.436;13.312;2024-02-28T09:54:18;4.80;99.90
33699;DHT22;20032;52.436;13.312;2024-02-28T09:56:47;4.80;99.90
33699;DHT22;20032;52.436;13.312;2024-02-28T09:59:16;4.80;99.90
33699;DHT22;20032;52.436;13.312;2024-02-28T10:04:10;4.60;99.90
33699;DHT22;20032;52.436;13.312;2024-02-28T10:06:39;4.60;99.90
33699;DHT22;20032;52.436;13.312;2024-02-28T10:09:05;4.60;99.90
33699;DHT22;20032;52.436;13.312;2024-02-28T10:11:31;4.60;99.90
33699;DHT22;20032;52.436;13.312;2024-02-28T10:13:59;4.60;99.90
33699;DHT22;20032;52.436;13.312;2024-02-28T10:16:26;4.60;99.90
33699;DHT22;20032;52.436;13.312;2024-02-28T10:18:52;4.70;99.90
33699;DHT22;20032;52.436;13.312;2024-02-28T10:21:19;4.70;99.90
33699;DHT22;20032;52.436;13.312;2024-02-28T10:23:45;4.80;99.90
33699;DHT22;20032;52.436;13.312;2024-02-28T10:26:12;4.80;99.90
33699;DHT22;20032;52.436;13.312;2024-02-28T10:28:39;4.70;99.90
33699;DHT22;20032;52.436;13.312;2024-02-28T10:31:06;4.70;99.90
33699;DHT22;20032;52.436;13.312;2024-02-28T10:33:32;4.80;99.90
33699;DHT22;20032;52.436;13.312;2024-02-28T10:35:59;4.90;99.90
33699;DHT22;20032;52.436;13.312;2024-02-28T10:38:26;4.90;99.90
33699;DHT22;20032;52.436;13.312;2024-02-28T10:40:54;4.90;99.90
33699;DHT22;20032;52.436;13.312;2024-02-28T10:43:20;5.00;99.90
33699;DHT22;20032;52.436;13.312;2024-02-28T10:45:46;4.90;99.90
33699;DHT22;20032;52.436;13.312;2024-02-28T10:48:14;4.90;99.90
33699;DHT22;20032;52.436;13.312;2024-02-28T10:50:44;5.00;99.90
33699;DHT22;20032;52.436;13.312;2024-02-28T10:53:14;5.00;99.90
33699;DHT22;20032;52.436;13.312;2024-02-28T10:55:42;5.00;99.90
33699;DHT22;20032;52.436;13.312;2024-02-28T10:58:10;4.90;99.90
33699;DHT22;20032;52.436;13.312;2024-02-28T11:00:36;4.80;99.90
33699;DHT22;20032;52.436;13.312;2024-02-28T11:03:05;4.80;99.90
33699;DHT22;20032;52.436;13.312;2024-02-28T11:05:36;4.80;99.90
33699;DHT22;20032;52.436;13.312;2024-02-28T11:08:07;4.80;99.90
33699;DHT22;20032;52.436;13.312;2024-02-28T11:10:34;4.80;99.90
33699;DHT22;20032;52.436;13.312;2024-02-28T11:12:59;4.80;99.90
33699;DHT22;20032;52.436;13.312;2024-02-28T11:15:27;4.90;99.90
33699;DHT22;20032;52.436;13.312;2024-02-28T11:18:07;4.90;99.90
33699;DHT22;20032;52.436;13.312;2024-02-28T11:20:34;5.00;99.90
33699;DHT22;20032;52.436;13.312;2024-02-28T11:23:00;4.80;99.90
33699;DHT22;20032;52.436;13.312;2024-02-28T11:25:25;4.70;99.90
33699;DHT22;20032;52.436;13.312;2024-02-28T11:27:51;4.90;99.90
33699;DHT22;20032;52.436;13.312;2024-02-28T11:30:17;4.90;99.90
33699;DHT22;20032;52.436;13.312;2024-02-28T11:32:42;5.10;99.90
33699;DHT22;20032;52.436;13.312;2024-02-28T11:35:09;5.10;99.90
33699;DHT22;20032;52.436;13.312;2024-02-28T11:37:39;5.00;99.90
33699;DHT22;20032;52.436;13.312;2024-02-28T11:40:07;5.00;99.90
33699;DHT22;20032;52.436;13.312;2024-02-28T11:42:35;4.90;99.90
33699;DHT22;20032;52.436;13.312;2024-02-28T11:45:01;4.80;99.90
33699;DHT22;20032;52.436;13.312;2024-02-28T11:47:32;4.90;99.90
33699;DHT22;20032;52.436;13.312;2024-02-28T11:50:02;4.90;99.90
33699;DHT22;20032;52.436;13.312;2024-02-28T11:52:30;4.90;99.90
33699;DHT22;20032;52.436;13.312;2024-02-28T11:54:57;4.80;99.90
33699;DHT22;20032;52.436;13.312;2024-02-28T11:57:26;4.90;99.90
33699;DHT22;20032;52.436;13.312;2024-02-28T11:59:51;4.80;99.90
33699;DHT22;20032;52.436;13.312;2024-02-28T12:02:18;4.70;99.90
33699;DHT22;20032;52.436;13.312;2024-02-28T12:04:45;4.70;99.90
33699;DHT22;20032;52.436;13.312;2024-02-28T12:07:11;4.80;99.90
33699;DHT22;20032;52.436;13.312;2024-02-28T12:09:40;4.90;99.90
33699;DHT22;20032;52.436;13.312;2024-02-28T12:12:07;5.00;99.90
33699;DHT22;20032;52.436;13.312;2024-02-28T12:14:36;5.00;99.90
33699;DHT22;20032;52.436;13.312;2024-02-28T12:17:03;5.10;99.90
33699;DHT22;20032;52.436;13.312;2024-02-28T12:19:30;5.10;99.90
33699;DHT22;20032;52.436;13.312;2024-02-28T12:21:56;5.00;99.90
33699;DHT22;20032;52.436;13.312;2024-02-28T12:24:22;4.80;99.90
33699;DHT22;20032;52.436;13.312;2024-02-28T12:26:50;4.80;99.90
33699;DHT22;20032;52.436;13.312;2024-02-28T12:29:16;4.90;99.90
33699;DHT22;20032;52.436;13.312;2024-02-28T12:31:41;5.00;99.90
33699;DHT22;20032;52.436;13.312;2024-02-28T12:34:08;5.10;99.90
33699;DHT22;20032;52.436;13.312;2024-02-28T12:36:33;5.20;99.90
33699;DHT22;20032;52.436;13.312;2024-02-28T12:39:02;5.20;99.90
33699;DHT22;20032;52.436;13.312;2024-02-28T12:41:31;5.20;99.90
33699;DHT22;20032;52.436;13.312;2024-02-28T12:43:57;5.20;99.90
33699;DHT22;20032;52.436;13.312;2024-02-28T12:46:24;5.10;99.90
33699;DHT22;20032;52.436;13.312;2024-02-28T12:48:50;5.10;99.90
33699;DHT22;20032;52.436;13.312;2024-02-28T12:51:36;5.20;99.90
33699;DHT22;20032;52.436;13.312;2024-02-28T12:54:03;5.00;99.90
33699;DHT22;20032;52.436;13.312;2024-02-28T12:56:28;5.00;99.90
33699;DHT22;20032;52.436;13.312;2024-02-28T12:58:54;5.10;99.90
33699;DHT22;20032;52.436;13.312;2024-02-28T13:01:19;5.30;99.90
33699;DHT22;20032;52.436;13.312;2024-02-28T13:03:45;5.20;99.90
33699;DHT22;20032;52.436;13.312;2024-02-28T13:06:11;5.10;99.90
33699;DHT22;20032;52.436;13.312;2024-02-28T13:08:37;5.30;99.90
33699;DHT22;20032;52.436;13.312;2024-02-28T13:11:03;5.40;99.90
33699;DHT22;20032;52.436;13.312;2024-02-28T13:13:29;5.50;99.90
33699;DHT22;20032;52.436;13.312;2024-02-28T13:15:54;5.50;99.90
33699;DHT22;20032;52.436;13.312;2024-02-28T13:18:20;5.50;99.90
33699;DHT22;20032;52.436;13.312;2024-02-28T13:20:45;5.60;99.90
33699;DHT22;20032;52.436;13.312;2024-02-28T13:23:11;5.60;99.90
33699;DHT22;20032;52.436;13.312;2024-02-28T13:25:36;5.60;99.90
33699;DHT22;20032;52.436;13.312;2024-02-28T13:28:02;5.70;99.90
33699;DHT22;20032;52.436;13.312;2024-02-28T13:30:28;5.70;99.90
33699;DHT22;20032;52.436;13.312;2024-02-28T13:32:53;5.90;99.90
33699;DHT22;20032;52.436;13.312;2024-02-28T13:35:19;5.90;99.90
33699;DHT22;20032;52.436;13.312;2024-02-28T13:37:44;6.10;99.90
33699;DHT22;20032;52.436;13.312;2024-02-28T13:40:11;5.90;99.90
33699;DHT22;20032;52.436;13.312;2024-02-28T13:42:38;6.00;99.90
33699;DHT22;20032;52.436;13.312;2024-02-28T13:45:04;6.30;99.90
33699;DHT22;20032;52.436;13.312;2024-02-28T13:47:33;6.50;99.90
33699;DHT22;20032;52.436;13.312;2024-02-28T13:49:59;6.70;99.90
33699;DHT22;20032;52.436;13.312;2024-02-28T13:52:25;7.20;99.90
33699;DHT22;20032;52.436;13.312;2024-02-28T13:54:50;7.70;99.90
33699;DHT22;20032;52.436;13.312;2024-02-28T13:57:17;8.20;99.90
33699;DHT22;20032;52.436;13.312;2024-02-28T13:59:44;8.70;99.90
33699;DHT22;20032;52.436;13.312;2024-02-28T14:02:14;8.70;99.90
33699;DHT22;20032;52.436;13.312;2024-02-28T14:04:40;8.60;99.90
33699;DHT22;20032;52.436;13.312;2024-02-28T14:07:08;8.80;99.90
33699;DHT22;20032;52.436;13.312;2024-02-28T14:09:35;8.80;99.90
33699;DHT22;20032;52.436;13.312;2024-02-28T14:12:00;8.30;99.90
33699;DHT22;20032;52.436;13.312;2024-02-28T14:14:27;7.90;99.90
33699;DHT22;20032;52.436;13.312;2024-02-28T14:16:53;7.60;99.90
33699;DHT22;20032;52.436;13.312;2024-02-28T14:19:18;7.70;99.90
33699;DHT22;20032;52.436;13.312;2024-02-28T14:21:45;7.60;99.90
33699;DHT22;20032;52.436;13.312;2024-02-28T14:24:12;7.40;99.90
33699;DHT22;20032;52.436;13.312;2024-02-28T14:26:37;7.10;99.90
33699;DHT22;20032;52.436;13.312;2024-02-28T14:29:03;6.90;99.90
33699;DHT22;20032;52.436;13.312;2024-02-28T14:31:30;6.80;99.90
33699;DHT22;20032;52.436;13.312;2024-02-28T14:33:56;6.60;99.90
33699;DHT22;20032;52.436;13.312;2024-02-28T14:36:23;6.40;99.90
33699;DHT22;20032;52.436;13.312;2024-02-28T14:38:50;6.20;99.90
33699;DHT22;20032;52.436;13.312;2024-02-28T14:41:17;6.40;99.90
33699;DHT22;20032;52.436;13.312;2024-02-28T14:43:43;6.40;99.90
33699;DHT22;20032;52.436;13.312;2024-02-28T14:46:08;6.50;99.90
33699;DHT22;20032;52.436;13.312;2024-02-28T14:48:35;6.90;99.90
33699;DHT22;20032;52.436;13.312;2024-02-28T14:51:02;7.70;99.90
33699;DHT22;20032;52.436;13.312;2024-02-28T14:53:27;7.90;99.90
33699;DHT22;20032;52.436;13.312;2024-02-28T14:55:53;7.50;99.90
33699;DHT22;20032;52.436;13.312;2024-02-28T14:58:19;7.10;99.90
33699;DHT22;20032;52.436;13.312;2024-02-28T15:00:44;6.90;99.90
33699;DHT22;20032;52.436;13.312;2024-02-28T15:03:13;6.70;99.90
33699;DHT22;20032;52.436;13.312;2024-02-28T15:05:39;6.70;99.90
33699;DHT22;20032;52.436;13.312;2024-02-28T15:08:07;6.60;99.90
33699;DHT22;20032;52.436;13.312;2024-02-28T15:10:32;6.50;99.90
33699;DHT22;20032;52.436;13.312;2024-02-28T15:12:58;6.30;99.90
33699;DHT22;20032;52.436;13.312;2024-02-28T15:15:26;6.30;99.90
33699;DHT22;20032;52.436;13.312;2024-02-28T15:17:53;6.50;99.90
33699;DHT22;20032;52.436;13.312;2024-02-28T15:20:19;6.50;99.90
33699;DHT22;20032;52.436;13.312;2024-02-28T15:22:47;6.50;99.90
33699;DHT22;20032;52.436;13.312;2024-02-28T15:25:13;6.90;99.90
33699;DHT22;20032;52.436;13.312;2024-02-28T15:27:38;7.00;99.90
33699;DHT22;20032;52.436;13.312;2024-02-28T15:30:05;7.00;99.90
33699;DHT22;20032;52.436;13.312;2024-02-28T15:32:31;7.00;99.90
33699;DHT22;20032;52.436;13.312;2024-02-28T15:34:58;7.20;99.90